SRR3242 KEYW-KLAL
Flight info
| Callsign | SRR3242 |
|---|---|
| Flight time | N/A |
| Altitude | 36000 |
| Route | CARNU |
| Aircraft | A400/H-SDE3FGHIRWY/L4T |
Departure
| Time | N/A |
|---|---|
| Airport | Key West International Airport (KEYW) |
Arrival
| Time | 2026-04-26 04:07 |
|---|---|
| Airport | Lakeland Linder International Airport (KLAL) |
| Time | Latitude | Longitude | Altitude | Speed | Heading |
|---|---|---|---|---|---|
| 2026-04-26 04:04 | 27.88883 | -82.12705 | 2690 ft | 238 kts | 44° |
| 2026-04-26 04:04 | 27.90037 | -82.11422 | 2689 ft | 229 kts | 46° |
| 2026-04-26 04:04 | 27.91154 | -82.10147 | 2697 ft | 227 kts | 46° |
| 2026-04-26 04:05 | 27.92253 | -82.08895 | 2696 ft | 227 kts | 46° |
| 2026-04-26 04:05 | 27.93382 | -82.07618 | 2325 ft | 238 kts | 45° |
| 2026-04-26 04:05 | 27.94614 | -82.06228 | 1459 ft | 261 kts | 45° |
| 2026-04-26 04:05 | 27.95911 | -82.04773 | 833 ft | 260 kts | 44° |
| 2026-04-26 04:06 | 27.97129 | -82.03438 | 537 ft | 220 kts | 46° |
| 2026-04-26 04:06 | 27.98070 | -82.02355 | 226 ft | 170 kts | 44° |
| 2026-04-26 04:06 | 27.98834 | -82.01504 | 158 ft | 130 kts | 45° |
| 2026-04-26 04:06 | 27.99357 | -82.00920 | 154 ft | 84 kts | 37° |
| 2026-04-26 04:07 | 27.99676 | -82.00813 | 164 ft | 5 kts | 5° |
| 2026-04-26 04:07 | 27.99675 | -82.00813 | 164 ft | 0 kts | 5° |
| 2026-04-26 04:08 | 27.99668 | -82.00815 | 164 ft | 2 kts | 341° |
| 2026-04-26 04:08 | 27.99658 | -82.00806 | 164 ft | 2 kts | 233° |
| 2026-04-26 04:08 | 27.99648 | -82.00807 | 161 ft | 9 kts | 203° |
| 2026-04-26 04:09 | 27.99597 | -82.00838 | 160 ft | 6 kts | 215° |
| 2026-04-26 04:09 | 27.99537 | -82.00888 | 158 ft | 15 kts | 218° |
| 2026-04-26 04:09 | 27.99447 | -82.00976 | 154 ft | 21 kts | 229° |
| 2026-04-26 04:09 | 27.99381 | -82.01121 | 153 ft | 20 kts | 250° |
| 2026-04-26 04:10 | 27.99355 | -82.01244 | 156 ft | 14 kts | 264° |
| 2026-04-26 04:10 | 27.99379 | -82.01383 | 156 ft | 18 kts | 268° |
| 2026-04-26 04:10 | 27.99364 | -82.01476 | 155 ft | 0 kts | 223° |
| 2026-04-26 04:14 | 27.99359 | -82.01482 | 155 ft | 0 kts | 223° |